createdAt,value
2018-10-05T00:05:07.846Z,11.50
2018-10-05T00:07:38.670Z,11.23
2018-10-05T00:10:09.509Z,11.17
2018-10-05T00:12:40.410Z,12.07
2018-10-05T00:15:10.937Z,10.70
2018-10-05T00:17:44.899Z,10.77
2018-10-05T00:20:15.720Z,9.90
2018-10-05T00:22:46.349Z,10.77
2018-10-05T00:25:16.860Z,10.80
2018-10-05T00:27:47.534Z,11.10
2018-10-05T00:30:19.350Z,10.33
2018-10-05T00:32:50.208Z,10.60
2018-10-05T00:35:20.933Z,10.53
2018-10-05T00:37:51.871Z,8.80
2018-10-05T00:40:23.067Z,9.77
2018-10-05T00:42:53.969Z,10.07
2018-10-05T00:45:25.079Z,10.00
2018-10-05T00:47:56.563Z,9.00
2018-10-05T00:50:27.154Z,9.83
2018-10-05T00:52:58.772Z,10.07
2018-10-05T00:55:29.581Z,9.67
2018-10-05T00:58:01.165Z,10.30
2018-10-05T01:00:32.860Z,9.17
2018-10-05T01:03:03.452Z,9.87
2018-10-05T01:05:34.246Z,9.33
2018-10-05T01:08:05.341Z,10.27
2018-10-05T01:10:35.801Z,9.87
2018-10-05T01:13:06.791Z,8.83
2018-10-05T01:15:37.991Z,9.70
2018-10-05T01:18:10.077Z,10.37
2018-10-05T01:20:40.623Z,10.07
2018-10-05T01:23:11.886Z,10.03
2018-10-05T01:25:42.670Z,10.03
2018-10-05T01:28:23.373Z,9.33
2018-10-05T01:30:54.010Z,9.70
2018-10-05T01:33:24.832Z,10.43
2018-10-05T01:35:55.711Z,9.93
2018-10-05T01:38:26.273Z,10.63
2018-10-05T01:40:57.182Z,9.53
2018-10-05T01:43:28.156Z,10.07
2018-10-05T01:45:59.474Z,10.00
2018-10-05T01:48:30.373Z,8.87
2018-10-05T01:51:02.369Z,9.93
2018-10-05T01:53:33.506Z,9.63
2018-10-05T01:56:05.387Z,9.60
2018-10-05T01:58:37.285Z,9.80
2018-10-05T02:01:08.655Z,9.10
2018-10-05T02:03:39.292Z,9.73
2018-10-05T02:06:10.257Z,9.80
2018-10-05T02:08:41.925Z,9.70
2018-10-05T02:11:13.058Z,9.53
2018-10-05T02:13:44.458Z,10.27
2018-10-05T02:16:15.800Z,10.07
2018-10-05T02:18:46.670Z,10.07
2018-10-05T02:21:18.019Z,10.47
2018-10-05T02:23:48.983Z,9.83
2018-10-05T02:26:19.734Z,10.73
2018-10-05T02:28:50.869Z,9.67
2018-10-05T02:31:21.731Z,9.97
2018-10-05T02:33:52.519Z,10.27
2018-10-05T02:36:23.746Z,10.27
2018-10-05T02:38:54.729Z,10.03
2018-10-05T02:41:25.372Z,11.47
2018-10-05T02:43:56.070Z,10.57
2018-10-05T02:46:27.436Z,10.63
2018-10-05T02:48:58.548Z,10.00
2018-10-05T02:51:29.246Z,10.77
2018-10-05T02:54:00.428Z,9.93
2018-10-05T02:56:31.270Z,10.20
2018-10-05T02:59:02.263Z,9.80
2018-10-05T03:01:43.472Z,10.87
2018-10-05T03:04:14.352Z,10.63
2018-10-05T03:06:45.470Z,10.47
2018-10-05T03:09:16.730Z,10.33
2018-10-05T03:11:48.230Z,10.47
2018-10-05T03:14:19.412Z,10.73
2018-10-05T03:16:50.367Z,11.47
2018-10-05T03:19:21.387Z,10.43
2018-10-05T03:21:52.698Z,10.97
2018-10-05T03:24:23.585Z,11.60
2018-10-05T03:26:54.831Z,11.00
2018-10-05T03:29:25.384Z,12.70
2018-10-05T03:31:56.387Z,13.37
2018-10-05T03:34:27.981Z,12.07
2018-10-05T03:36:59.032Z,10.77
2018-10-05T03:39:30.193Z,10.87
2018-10-05T03:42:01.622Z,12.20
2018-10-05T03:44:32.360Z,11.70
2018-10-05T03:47:03.396Z,11.43
2018-10-05T03:49:34.918Z,11.37
2018-10-05T03:52:05.692Z,11.10
2018-10-05T03:54:37.053Z,11.10
2018-10-05T03:57:10.019Z,12.77
2018-10-05T03:59:41.950Z,11.80
2018-10-05T04:02:13.510Z,12.50
2018-10-05T04:04:48.414Z,12.07
2018-10-05T04:07:19.938Z,11.27
2018-10-05T04:09:50.976Z,11.20
2018-10-05T04:12:21.900Z,11.43
2018-10-05T04:14:53.058Z,11.30
2018-10-05T04:17:25.106Z,10.97
2018-10-05T04:19:56.825Z,10.57
2018-10-05T04:22:30.907Z,10.70
2018-10-05T04:25:03.766Z,11.20
2018-10-05T04:27:35.773Z,11.70
2018-10-05T04:30:07.093Z,10.60
2018-10-05T04:32:38.735Z,10.97
2018-10-05T04:35:10.281Z,11.17
2018-10-05T04:37:41.635Z,10.70
2018-10-05T04:40:13.289Z,12.20
2018-10-05T04:42:45.183Z,12.07
2018-10-05T04:45:18.514Z,12.17
2018-10-05T04:47:49.410Z,12.00
2018-10-05T04:50:19.628Z,12.47
2018-10-05T04:52:49.845Z,12.27
2018-10-05T04:55:20.092Z,12.30
2018-10-05T04:57:50.363Z,12.63
2018-10-05T05:00:20.348Z,12.80
2018-10-05T05:02:50.510Z,11.37
2018-10-05T05:05:21.144Z,12.90
2018-10-05T05:07:51.698Z,12.33
2018-10-05T05:10:22.044Z,12.27
2018-10-05T05:12:52.431Z,12.43
2018-10-05T05:15:23.184Z,11.97
2018-10-05T05:17:53.518Z,11.17
2018-10-05T05:20:24.040Z,11.60
2018-10-05T05:22:54.033Z,11.57
2018-10-05T05:25:24.226Z,11.53
2018-10-05T05:27:55.030Z,11.50
2018-10-05T05:30:25.317Z,11.43
2018-10-05T05:32:55.296Z,10.27
2018-10-05T05:35:25.489Z,11.37
2018-10-05T05:37:55.906Z,11.43
2018-10-05T05:40:25.847Z,11.47
2018-10-05T05:42:55.915Z,11.50
2018-10-05T05:45:26.237Z,12.67
2018-10-05T05:47:56.488Z,12.13
2018-10-05T05:50:26.858Z,12.93
2018-10-05T05:52:57.220Z,12.30
2018-10-05T05:55:27.245Z,12.27
2018-10-05T05:57:57.591Z,12.43
2018-10-05T06:00:28.251Z,12.07
2018-10-05T06:02:58.999Z,11.60
2018-10-05T06:05:29.950Z,13.50
2018-10-05T06:08:00.091Z,12.20
2018-10-05T06:10:30.008Z,12.57
2018-10-05T06:13:00.263Z,11.23
2018-10-05T06:15:30.267Z,12.90
2018-10-05T06:18:00.881Z,12.80
2018-10-05T06:20:30.842Z,12.70
2018-10-05T06:23:00.817Z,14.03
2018-10-05T06:25:30.834Z,14.93
2018-10-05T06:28:00.749Z,13.70
2018-10-05T06:30:32.356Z,15.57
2018-10-05T06:33:02.297Z,14.57
2018-10-05T06:35:32.669Z,13.13
2018-10-05T06:38:02.908Z,16.10
2018-10-05T06:40:33.087Z,15.23
2018-10-05T06:43:04.804Z,15.43
2018-10-05T06:45:40.428Z,16.47
2018-10-05T06:48:10.602Z,15.47
2018-10-05T06:50:40.744Z,17.33
2018-10-05T06:53:11.163Z,16.90
2018-10-05T06:55:41.358Z,16.53
2018-10-05T06:58:11.336Z,16.53
2018-10-05T07:00:41.304Z,17.30
2018-10-05T07:03:11.424Z,15.33
2018-10-05T07:05:41.828Z,15.53
2018-10-05T07:08:11.902Z,16.27
2018-10-05T07:10:42.048Z,13.30
2018-10-05T07:13:12.146Z,13.40
2018-10-05T07:15:42.219Z,11.00
2018-10-05T07:18:12.302Z,11.77
2018-10-05T07:20:42.478Z,10.47
2018-10-05T07:23:12.755Z,10.53
2018-10-05T07:25:43.211Z,9.70
2018-10-05T07:28:13.449Z,8.57
2018-10-05T07:30:43.810Z,6.97
2018-10-05T07:33:14.646Z,6.83
2018-10-05T07:35:45.286Z,6.53
2018-10-05T07:38:16.718Z,5.70
2018-10-05T07:40:47.740Z,5.73
2018-10-05T07:43:20.119Z,5.30
2018-10-05T07:45:51.046Z,4.97
2018-10-05T07:48:23.530Z,4.47
2018-10-05T07:50:55.117Z,5.40
2018-10-05T07:53:26.910Z,4.50
2018-10-05T07:55:59.454Z,3.90
2018-10-05T07:58:30.202Z,4.27
2018-10-05T08:01:01.256Z,4.33
2018-10-05T08:03:33.120Z,4.03
2018-10-05T08:06:04.420Z,3.73
2018-10-05T08:08:36.110Z,4.13
2018-10-05T08:11:07.952Z,3.77
2018-10-05T08:13:39.218Z,4.07
2018-10-05T08:16:11.044Z,4.10
2018-10-05T08:18:43.061Z,3.87
2018-10-05T08:21:14.550Z,3.80
2018-10-05T08:23:46.850Z,3.63
2018-10-05T08:26:17.508Z,4.33
2018-10-05T08:28:48.580Z,3.63
2018-10-05T08:31:21.120Z,3.80
2018-10-05T08:33:52.468Z,4.47
2018-10-05T08:36:24.077Z,3.97
2018-10-05T08:38:55.579Z,4.87
2018-10-05T08:41:26.636Z,4.00
2018-10-05T08:43:58.979Z,4.50
2018-10-05T08:46:30.448Z,3.80
2018-10-05T08:49:00.973Z,4.40
2018-10-05T08:51:32.127Z,4.70
2018-10-05T08:54:02.765Z,4.33
2018-10-05T08:56:34.377Z,4.33
2018-10-05T08:59:05.551Z,3.93
2018-10-05T09:01:37.026Z,4.13
2018-10-05T09:04:08.351Z,4.13
2018-10-05T09:06:39.177Z,4.10
2018-10-05T09:09:10.475Z,3.73
2018-10-05T09:11:42.097Z,3.87
2018-10-05T09:14:14.293Z,3.70
2018-10-05T09:16:45.401Z,3.90
2018-10-05T09:19:16.853Z,3.60
2018-10-05T09:21:47.760Z,3.73
2018-10-05T09:24:19.543Z,4.10
2018-10-05T09:26:51.032Z,3.40
2018-10-05T09:29:23.761Z,4.00
2018-10-05T09:31:54.423Z,3.60
2018-10-05T09:34:27.049Z,3.90
2018-10-05T09:36:58.034Z,3.90
2018-10-05T09:39:29.939Z,3.53
2018-10-05T09:42:01.100Z,4.07
2018-10-05T09:44:32.566Z,3.27
2018-10-05T09:47:04.326Z,3.60
2018-10-05T09:49:35.781Z,3.67
2018-10-05T09:52:07.820Z,3.77
2018-10-05T09:54:39.467Z,3.80
2018-10-05T09:57:11.151Z,3.30
2018-10-05T09:59:42.313Z,4.00
2018-10-05T10:02:24.177Z,3.23
2018-10-05T10:05:02.182Z,3.63
2018-10-05T10:07:33.088Z,3.20
2018-10-05T10:10:06.592Z,3.33
2018-10-05T10:12:38.872Z,3.37
2018-10-05T10:15:11.667Z,3.40
2018-10-05T10:17:43.353Z,3.10
2018-10-05T10:20:27.039Z,3.70
2018-10-05T10:23:00.875Z,2.90
2018-10-05T10:25:33.595Z,2.80
2018-10-05T10:28:04.736Z,2.97
2018-10-05T10:30:35.593Z,3.20
2018-10-05T10:33:07.127Z,2.87
2018-10-05T10:35:40.751Z,3.20
2018-10-05T10:38:11.909Z,3.43
2018-10-05T10:40:42.565Z,3.00
2018-10-05T10:43:20.071Z,2.83
2018-10-05T10:45:51.843Z,3.00
2018-10-05T10:48:22.683Z,2.70
2018-10-05T10:50:53.358Z,3.00
2018-10-05T10:53:27.992Z,2.83
2018-10-05T10:55:59.650Z,3.03
2018-10-05T10:58:32.765Z,3.27
2018-10-05T11:01:04.199Z,2.70
2018-10-05T11:03:35.433Z,3.07
2018-10-05T11:06:07.111Z,2.87
2018-10-05T11:08:38.348Z,3.22
2018-10-05T11:11:09.377Z,2.80
2018-10-05T11:13:40.416Z,2.60
2018-10-05T11:16:11.499Z,3.08
2018-10-05T11:18:45.706Z,2.87
2018-10-05T11:21:16.321Z,2.72
2018-10-05T11:23:47.935Z,2.62
2018-10-05T11:26:19.047Z,3.30
2018-10-05T11:28:50.282Z,3.22
2018-10-05T11:31:21.579Z,2.98
2018-10-05T11:33:52.250Z,2.90
2018-10-05T11:36:23.581Z,2.60
2018-10-05T11:38:54.424Z,3.12
2018-10-05T11:41:25.053Z,2.77
2018-10-05T11:43:55.999Z,2.70
2018-10-05T11:46:27.811Z,3.15
2018-10-05T11:48:59.313Z,2.95
2018-10-05T11:51:30.930Z,2.77
2018-10-05T11:54:04.205Z,3.15
2018-10-05T11:56:34.421Z,2.70
2018-10-05T11:59:05.459Z,2.65
2018-10-05T12:01:37.638Z,3.45
2018-10-05T12:04:08.228Z,2.90
2018-10-05T12:06:38.159Z,2.65
2018-10-05T12:09:09.681Z,2.75
2018-10-05T12:11:41.050Z,2.50
2018-10-05T12:14:11.840Z,2.62
2018-10-05T12:16:41.989Z,2.77
2018-10-05T12:19:13.020Z,2.75
2018-10-05T12:21:43.597Z,3.15
2018-10-05T12:24:13.532Z,2.45
2018-10-05T12:26:43.322Z,2.65
2018-10-05T12:29:13.718Z,2.27
2018-10-05T12:31:44.114Z,2.40
2018-10-05T12:34:15.118Z,2.20
2018-10-05T12:36:48.971Z,2.50
2018-10-05T12:39:19.566Z,2.12
2018-10-05T12:41:49.801Z,2.12
2018-10-05T12:44:19.716Z,2.12
2018-10-05T12:46:49.858Z,2.35
2018-10-05T12:49:20.136Z,2.00
2018-10-05T12:51:52.358Z,2.02
2018-10-05T12:54:22.265Z,2.50
2018-10-05T12:56:52.345Z,2.20
2018-10-05T12:59:23.525Z,2.00
2018-10-05T13:01:53.496Z,2.42
2018-10-05T13:04:23.551Z,2.47
2018-10-05T13:06:54.562Z,2.20
2018-10-05T13:09:24.695Z,2.12
2018-10-05T13:11:54.915Z,2.50
2018-10-05T13:14:24.705Z,2.75
2018-10-05T13:16:54.320Z,2.17
2018-10-05T13:19:26.461Z,2.47
2018-10-05T13:21:56.865Z,2.35
2018-10-05T13:24:34.051Z,2.15
2018-10-05T13:27:04.358Z,2.50
2018-10-05T13:29:35.364Z,2.40
2018-10-05T13:32:05.116Z,2.20
2018-10-05T13:34:35.274Z,2.15
2018-10-05T13:37:05.796Z,2.15
2018-10-05T13:39:35.353Z,2.27
2018-10-05T13:42:06.193Z,2.02
2018-10-05T13:44:36.293Z,2.27
2018-10-05T13:47:06.153Z,2.20
2018-10-05T13:49:36.356Z,2.10
2018-10-05T13:52:06.872Z,2.30
2018-10-05T13:54:36.994Z,2.42
2018-10-05T13:57:07.249Z,2.30
2018-10-05T13:59:38.360Z,2.30
2018-10-05T14:02:08.442Z,2.45
2018-10-05T14:04:39.955Z,2.20
2018-10-05T14:07:10.428Z,2.30
2018-10-05T14:09:40.264Z,2.77
2018-10-05T14:12:10.028Z,2.30
2018-10-05T14:14:41.272Z,2.20
2018-10-05T14:17:11.284Z,2.12
2018-10-05T14:19:41.518Z,2.10
2018-10-05T14:22:12.825Z,2.17
2018-10-05T14:24:42.786Z,2.08
2018-10-05T14:27:13.114Z,2.50
2018-10-05T14:29:43.107Z,2.37
2018-10-05T14:32:12.515Z,2.15
2018-10-05T14:34:45.300Z,2.37
2018-10-05T14:37:14.991Z,2.05
2018-10-05T14:39:45.050Z,2.65
2018-10-05T14:42:15.125Z,2.95
2018-10-05T14:44:45.022Z,2.05
2018-10-05T14:47:14.801Z,2.00
2018-10-05T14:49:44.779Z,1.95
2018-10-05T14:52:18.798Z,1.72
2018-10-05T14:54:48.866Z,2.00
2018-10-05T14:57:20.681Z,2.10
2018-10-05T14:59:51.516Z,2.00
2018-10-05T15:02:21.259Z,2.10
2018-10-05T15:04:51.439Z,1.87
2018-10-05T15:07:21.411Z,1.98
2018-10-05T15:09:50.911Z,2.30
2018-10-05T15:12:20.534Z,2.20
2018-10-05T15:14:50.531Z,2.10
2018-10-05T15:17:20.503Z,2.12
2018-10-05T15:19:50.557Z,2.10
2018-10-05T15:22:20.149Z,1.90
2018-10-05T15:24:49.980Z,1.75
2018-10-05T15:27:19.704Z,2.10
2018-10-05T15:29:50.140Z,2.05
2018-10-05T15:32:19.745Z,1.75
2018-10-05T15:34:49.806Z,2.15
2018-10-05T15:37:19.904Z,2.00
2018-10-05T15:39:49.997Z,2.00
2018-10-05T15:42:20.993Z,2.00
2018-10-05T15:44:50.938Z,2.02
2018-10-05T15:47:21.269Z,2.10
2018-10-05T15:49:51.125Z,2.22
2018-10-05T15:52:21.015Z,2.12
2018-10-05T15:54:51.327Z,2.17
2018-10-05T15:57:21.910Z,2.00
2018-10-05T15:59:52.051Z,2.20
2018-10-05T16:02:22.647Z,2.30
2018-10-05T16:04:54.076Z,2.47
2018-10-05T16:07:23.949Z,2.03
2018-10-05T16:09:55.014Z,2.00
2018-10-05T16:12:25.795Z,1.93
2018-10-05T16:14:56.153Z,2.20
2018-10-05T16:17:26.831Z,2.20
2018-10-05T16:19:57.090Z,2.13
2018-10-05T16:22:27.660Z,1.90
2018-10-05T16:24:57.708Z,2.00
2018-10-05T16:27:27.974Z,2.47
2018-10-05T16:29:58.256Z,2.50
2018-10-05T16:32:29.093Z,2.40
2018-10-05T16:34:59.760Z,2.40
2018-10-05T16:37:29.850Z,2.17
2018-10-05T16:40:00.298Z,2.03
2018-10-05T16:42:30.691Z,2.00
2018-10-05T16:45:00.918Z,2.23
2018-10-05T16:47:31.140Z,2.37
2018-10-05T16:50:02.523Z,2.30
2018-10-05T16:52:32.868Z,2.13
2018-10-05T16:55:03.689Z,2.30
2018-10-05T16:57:34.194Z,2.00
2018-10-05T17:00:04.171Z,2.00
2018-10-05T17:02:34.380Z,2.27
2018-10-05T17:05:04.938Z,2.20
2018-10-05T17:07:35.018Z,2.40
2018-10-05T17:10:06.915Z,2.80
2018-10-05T17:12:37.058Z,2.60
2018-10-05T17:15:07.919Z,2.60
2018-10-05T17:17:38.251Z,2.87
2018-10-05T17:20:08.472Z,2.80
2018-10-05T17:22:38.250Z,3.07
2018-10-05T17:25:07.952Z,2.83
2018-10-05T17:27:38.090Z,2.83
2018-10-05T17:30:08.139Z,2.63
2018-10-05T17:32:38.237Z,2.43
2018-10-05T17:35:08.019Z,2.37
2018-10-05T17:37:38.436Z,3.10
2018-10-05T17:40:09.005Z,2.70
2018-10-05T17:42:38.898Z,3.13
2018-10-05T17:45:08.595Z,2.67
2018-10-05T17:47:39.807Z,2.93
2018-10-05T17:50:09.888Z,2.50
2018-10-05T17:52:39.977Z,2.70
2018-10-05T17:55:09.968Z,2.67
2018-10-05T17:57:39.566Z,2.83
2018-10-05T18:00:10.342Z,3.50
2018-10-05T18:02:40.768Z,3.30
2018-10-05T18:05:11.376Z,2.70
2018-10-05T18:07:42.276Z,2.87
2018-10-05T18:10:12.004Z,3.30
2018-10-05T18:12:41.930Z,2.83
2018-10-05T18:15:11.584Z,3.13
2018-10-05T18:17:41.475Z,3.30
2018-10-05T18:20:18.652Z,3.43
2018-10-05T18:22:49.032Z,3.20
2018-10-05T18:25:24.934Z,3.90
2018-10-05T18:27:55.208Z,5.00
2018-10-05T18:30:25.380Z,4.90
2018-10-05T18:32:56.074Z,4.73
2018-10-05T18:35:25.932Z,4.57
2018-10-05T18:37:56.530Z,4.40
2018-10-05T18:40:26.327Z,4.23
2018-10-05T18:42:58.620Z,4.17
2018-10-05T18:45:28.465Z,3.53
2018-10-05T18:47:59.191Z,4.03
2018-10-05T18:50:35.113Z,3.73
2018-10-05T18:53:05.028Z,3.83
2018-10-05T18:55:38.567Z,3.83
2018-10-05T18:58:08.453Z,4.07
2018-10-05T19:00:38.205Z,4.03
2018-10-05T19:03:09.395Z,4.00
2018-10-05T19:05:39.142Z,5.10
2018-10-05T19:08:09.237Z,5.87
2018-10-05T19:10:39.183Z,5.10
2018-10-05T19:13:08.843Z,5.57
2018-10-05T19:15:38.765Z,5.43
2018-10-05T19:18:08.563Z,6.33
2018-10-05T19:20:38.812Z,5.30
2018-10-05T19:23:08.602Z,4.57
2018-10-05T19:25:38.605Z,4.20
2018-10-05T19:28:11.590Z,3.73
2018-10-05T19:30:41.656Z,4.20
2018-10-05T19:33:13.388Z,4.00
2018-10-05T19:35:44.608Z,4.00
2018-10-05T19:38:15.081Z,4.00
2018-10-05T19:40:46.111Z,3.77
2018-10-05T19:43:16.848Z,3.80
2018-10-05T19:45:47.172Z,3.67
2018-10-05T19:48:17.758Z,4.70
2018-10-05T19:50:48.260Z,4.70
2018-10-05T19:53:18.226Z,4.07
2018-10-05T19:55:51.146Z,4.37
2018-10-05T19:58:21.809Z,4.00
2018-10-05T20:00:52.924Z,4.47
2018-10-05T20:03:23.775Z,4.37
2018-10-05T20:05:54.099Z,4.20
2018-10-05T20:08:25.229Z,4.07
2018-10-05T20:10:56.316Z,4.30
2018-10-05T20:13:26.983Z,4.70
2018-10-05T20:15:57.651Z,4.30
2018-10-05T20:18:28.727Z,4.40
2018-10-05T20:21:00.093Z,4.20
2018-10-05T20:23:30.615Z,4.47
2018-10-05T20:26:01.645Z,4.30
2018-10-05T20:28:32.771Z,4.50
2018-10-05T20:31:04.694Z,4.43
2018-10-05T20:33:35.573Z,4.30
2018-10-05T20:36:07.011Z,4.50
2018-10-05T20:38:38.034Z,5.03
2018-10-05T20:41:08.716Z,4.93
2018-10-05T20:43:41.872Z,4.90
2018-10-05T20:46:13.373Z,5.03
2018-10-05T20:48:44.368Z,4.90
2018-10-05T20:51:18.715Z,4.70
2018-10-05T20:53:48.727Z,4.43
2018-10-05T20:56:20.125Z,4.73
2018-10-05T20:58:51.841Z,5.43
2018-10-05T21:01:23.241Z,5.20
2018-10-05T21:03:53.225Z,5.00
2018-10-05T21:06:23.319Z,5.53
2018-10-05T21:08:53.955Z,5.00
2018-10-05T21:11:28.176Z,5.37
2018-10-05T21:13:57.985Z,5.23
2018-10-05T21:16:32.962Z,5.33
2018-10-05T21:19:03.804Z,5.70
2018-10-05T21:21:33.689Z,5.77
2018-10-05T21:24:05.953Z,5.67
2018-10-05T21:26:35.599Z,5.63
2018-10-05T21:29:06.517Z,5.43
2018-10-05T21:31:36.084Z,6.10
2018-10-05T21:34:07.029Z,6.20
2018-10-05T21:36:36.797Z,6.00
2018-10-05T21:39:08.964Z,6.23
2018-10-05T21:41:39.299Z,6.30
2018-10-05T21:44:09.251Z,7.60
2018-10-05T21:46:39.203Z,7.50
2018-10-05T21:49:09.249Z,7.30
2018-10-05T21:51:39.450Z,6.93
2018-10-05T21:54:16.185Z,7.20
2018-10-05T21:56:46.020Z,6.63
2018-10-05T21:59:15.688Z,6.53
2018-10-05T22:01:46.396Z,6.50
2018-10-05T22:04:16.964Z,6.67
2018-10-05T22:06:47.448Z,6.93
2018-10-05T22:09:17.851Z,7.03
2018-10-05T22:11:54.397Z,6.73
2018-10-05T22:14:24.939Z,6.93
2018-10-05T22:16:55.788Z,7.30
2018-10-05T22:19:27.328Z,7.27
2018-10-05T22:21:57.796Z,7.13
2018-10-05T22:24:28.215Z,6.50
2018-10-05T22:26:59.673Z,6.87
2018-10-05T22:29:30.851Z,7.63
2018-10-05T22:32:02.130Z,7.90
2018-10-05T22:34:32.458Z,7.47
2018-10-05T22:37:03.074Z,7.30
2018-10-05T22:39:34.245Z,6.90
2018-10-05T22:42:05.070Z,7.47
2018-10-05T22:44:35.551Z,8.50
2018-10-05T22:47:08.430Z,8.20
2018-10-05T22:49:38.854Z,8.53
2018-10-05T22:52:15.465Z,8.00
2018-10-05T22:54:46.133Z,8.27
2018-10-05T22:57:17.415Z,8.57
2018-10-05T22:59:48.251Z,9.13
2018-10-05T23:02:19.188Z,9.40
2018-10-05T23:04:50.259Z,8.93
2018-10-05T23:07:20.500Z,9.17
2018-10-05T23:09:51.237Z,9.07
2018-10-05T23:12:21.844Z,8.80
2018-10-05T23:14:52.686Z,9.53
2018-10-05T23:17:23.306Z,10.13
2018-10-05T23:19:53.703Z,9.20
2018-10-05T23:22:24.738Z,9.93
2018-10-05T23:24:55.183Z,9.93
2018-10-05T23:27:25.640Z,9.83
2018-10-05T23:29:55.430Z,9.90
2018-10-05T23:32:26.282Z,10.00
2018-10-05T23:34:56.828Z,10.10
2018-10-05T23:37:27.247Z,10.20
2018-10-05T23:39:57.552Z,9.83
2018-10-05T23:42:31.447Z,10.47
2018-10-05T23:45:01.589Z,10.10
2018-10-05T23:47:41.522Z,10.70
2018-10-05T23:50:12.558Z,10.40
2018-10-05T23:52:49.309Z,10.57
2018-10-05T23:55:20.732Z,10.47
2018-10-05T23:57:51.892Z,10.83
